.
WxDataArchive / Data Records for 2014-04-24
2014-04-23 April 2014 2014-04-25

Data Records for Thursday, 24 April 2014

Time	Temp	Chill	HIndex	Humid	Dewpt	 Wind 	HiWind	WindDir	Rain 	Barom
-----	----	-----	------	-----	-----	------	------	-------	-----	-----
00:00	47.9	47.9	47.9	47	28.7	0	0	---	0.00	30.074 
00:05	48.0	48.0	48.0	46	28.2	0	0	---	0.00	30.074 
00:10	48.5	48.5	48.5	45	28.1	0	2	68	0.00	30.074 
00:15	48.9	48.9	48.9	43	27.4	0	1	68	0.00	30.069 
00:20	49.2	49.2	49.2	41	26.5	0	2	68	0.00	30.069 
00:25	49.5	49.5	49.5	41	26.8	0	1	68	0.00	30.069 
00:30	49.6	49.6	49.6	40	26.3	1	3	68	0.00	30.066 
00:35	49.8	49.8	49.8	40	26.5	0	3	68	0.00	30.066 
00:40	49.8	49.8	49.8	41	27.1	0	2	68	0.00	30.066 
00:45	49.8	49.8	49.8	41	27.1	0	1	68	0.00	30.066 
00:50	49.6	49.6	49.6	41	26.9	1	4	68	0.00	30.066 
00:55	49.6	49.6	49.6	41	26.9	0	2	68	0.00	30.066 
01:00	49.5	49.5	49.5	41	26.8	1	2	68	0.00	30.063 
01:05	49.5	49.5	49.5	41	26.8	1	3	68	0.00	30.063 
01:10	49.5	49.5	49.5	41	26.8	1	3	68	0.00	30.063 
01:15	49.4	49.4	49.4	42	27.3	1	3	68	0.00	30.065 
01:20	49.4	49.4	49.4	41	26.7	1	2	68	0.00	30.065 
01:25	49.4	49.4	49.4	43	27.9	1	2	68	0.00	30.065 
01:30	49.2	49.2	49.2	43	27.7	1	3	68	0.00	30.058 
01:35	49.1	49.1	49.1	43	27.6	1	3	68	0.00	30.058 
01:40	49.1	49.1	49.1	43	27.6	1	5	68	0.00	30.058 
01:45	49.1	49.1	49.1	44	28.1	1	3	68	0.00	30.060 
01:50	49.1	49.1	49.1	44	28.1	1	3	68	0.00	30.060 
01:55	48.9	48.9	48.9	44	28.0	2	6	68	0.00	30.060 
02:00	48.9	48.9	48.9	45	28.5	1	3	68	0.00	30.055 
02:05	48.9	48.9	48.9	45	28.5	1	4	68	0.00	30.055 
02:10	48.9	48.9	48.9	45	28.5	2	5	68	0.00	30.055 
02:15	48.9	48.9	48.9	46	29.0	1	3	68	0.00	30.051 
02:20	48.8	48.8	48.8	47	29.5	1	4	68	0.00	30.051 
02:25	48.8	48.8	48.8	49	30.5	2	5	68	0.00	30.051 
02:30	48.6	48.6	48.6	50	30.8	1	5	68	0.00	30.052 
02:35	48.5	48.5	48.5	50	30.7	1	5	68	0.00	30.052 
02:40	48.5	48.5	48.5	52	31.7	1	4	68	0.00	30.052 
02:45	48.3	48.3	48.3	53	32.0	2	5	68	0.00	30.050 
02:50	48.3	48.3	48.3	54	32.4	2	6	68	0.00	30.050 
02:55	48.3	48.3	48.3	55	32.9	2	4	68	0.00	30.050 
03:00	48.3	48.3	48.3	55	32.9	2	5	68	0.00	30.049 
03:05	48.3	48.3	48.3	55	32.9	2	6	68	0.00	30.049 
03:10	48.2	48.2	48.2	56	33.2	2	5	68	0.00	30.049 
03:15	48.2	48.2	48.2	56	33.2	3	7	68	0.00	30.048 
03:20	48.0	48.0	48.0	57	33.5	2	5	90	0.00	30.048 
03:25	48.0	48.0	48.0	56	33.1	3	7	90	0.00	30.048 
03:30	47.9	47.9	47.9	56	33.0	2	4	112	0.00	30.050 
03:35	47.9	47.9	47.9	57	33.4	2	4	112	0.00	30.050 
03:40	47.7	47.7	47.7	57	33.2	2	4	112	0.00	30.050 
03:45	47.7	47.7	47.7	58	33.7	2	5	112	0.00	30.054 
03:50	47.6	47.6	47.6	57	33.1	3	5	112	0.00	30.054 
03:55	47.6	47.6	47.6	58	33.6	1	4	90	0.00	30.054 
04:00	47.4	47.4	47.4	58	33.4	2	5	90	0.00	30.059 
04:05	47.4	47.4	47.4	59	33.8	1	3	90	0.00	30.059 
04:10	47.3	47.3	47.3	60	34.1	1	3	90	0.00	30.059 
04:15	47.1	47.1	47.1	59	33.5	1	3	90	0.00	30.066 
04:20	47.1	47.1	47.1	59	33.5	1	4	90	0.00	30.066 
04:25	47.0	47.0	47.0	59	33.4	0	2	90	0.00	30.066 
04:30	47.0	47.0	47.0	59	33.4	0	1	90	0.00	30.069 
04:35	46.8	46.8	46.8	59	33.2	1	2	90	0.00	30.069 
04:40	46.8	46.8	46.8	60	33.7	0	1	90	0.00	30.069 
04:45	46.7	46.7	46.7	60	33.6	1	2	90	0.00	30.076 
04:50	46.7	46.7	46.7	60	33.6	0	2	90	0.00	30.076 
04:55	46.5	46.5	46.5	59	33.0	1	3	90	0.00	30.076 
05:00	46.4	46.4	46.4	59	32.9	0	2	90	0.00	30.078 
05:05	46.2	46.2	46.2	60	33.1	0	0	---	0.00	30.078 
05:10	46.1	46.1	46.1	61	33.4	0	0	---	0.00	30.078 
05:15	46.0	46.0	46.0	62	33.7	0	0	---	0.00	30.078 
05:20	45.8	45.8	45.8	63	33.9	0	1	90	0.00	30.078 
05:25	45.7	45.7	45.7	63	33.8	0	1	90	0.00	30.078 
05:30	45.7	45.7	45.7	64	34.2	0	1	90	0.00	30.081 
05:35	45.8	45.8	45.8	63	33.9	1	2	90	0.00	30.081 
05:40	45.8	45.8	45.8	63	33.9	1	2	90	0.00	30.081 
05:45	46.0	46.0	46.0	63	34.1	0	2	90	0.00	30.080 
05:50	46.0	46.0	46.0	64	34.5	0	1	90	0.00	30.080 
05:55	46.0	46.0	46.0	64	34.5	1	2	90	0.00	30.080 
06:00	45.8	45.8	45.8	63	33.9	1	3	90	0.00	30.080 
06:05	45.7	45.7	45.7	64	34.2	1	2	90	0.00	30.080 
06:10	45.7	45.7	45.7	63	33.8	1	3	90	0.00	30.080 
06:15	45.7	45.7	45.7	63	33.8	1	3	90	0.00	30.082 
06:20	45.7	45.7	45.7	64	34.2	1	4	90	0.00	30.082 
06:25	45.5	45.5	45.5	63	33.6	1	4	90	0.00	30.082 
06:30	45.5	45.5	45.5	63	33.6	0	2	90	0.00	30.088 
06:35	45.5	45.5	45.5	63	33.6	0	2	90	0.00	30.088 
06:40	45.5	45.5	45.5	62	33.2	2	4	90	0.00	30.088 
06:45	45.5	45.5	45.5	62	33.2	1	3	90	0.00	30.081 
06:50	45.5	45.5	45.5	61	32.8	1	4	90	0.00	30.081 
06:55	45.5	45.5	45.5	61	32.8	1	2	90	0.00	30.081 
07:00	45.5	45.5	45.5	61	32.8	1	2	90	0.00	30.081 
07:05	45.5	45.5	45.5	61	32.8	0	2	90	0.00	30.081 
07:10	45.5	45.5	45.5	62	33.2	0	1	90	0.00	30.081 
07:15	45.4	45.4	45.4	61	32.7	1	3	90	0.00	30.086 
07:20	45.4	45.4	45.4	61	32.7	0	3	90	0.00	30.086 
07:25	45.4	45.4	45.4	62	33.2	0	2	90	0.00	30.086 
07:30	45.5	45.5	45.5	62	33.2	0	2	90	0.00	30.098 
07:35	45.7	45.7	45.7	61	33.0	1	4	90	0.00	30.098 
07:40	45.8	45.8	45.8	61	33.1	1	5	90	0.00	30.098 
07:45	46.0	46.0	46.0	60	32.9	0	3	90	0.00	30.110 
07:50	46.2	46.2	46.2	59	32.7	1	4	90	0.00	30.110 
07:55	46.5	46.5	46.5	58	32.5	1	4	90	0.00	30.110 
08:00	47.1	47.1	47.1	58	33.1	1	3	90	0.00	30.117 
08:05	47.4	47.4	47.4	57	32.9	1	3	90	0.00	30.117 
08:10	47.6	47.6	47.6	58	33.6	1	3	90	0.00	30.117 
08:15	47.3	47.3	47.3	56	32.4	2	5	90	0.00	30.121 
08:20	47.0	47.0	47.0	57	32.6	1	4	90	0.00	30.121 
08:25	47.0	47.0	47.0	57	32.6	2	5	90	0.00	30.121 
08:30	47.0	47.0	47.0	54	31.2	2	5	90	0.00	30.117 
08:35	47.0	47.0	47.0	54	31.2	2	5	90	0.00	30.117 
08:40	47.1	47.1	47.1	54	31.3	1	4	90	0.00	30.117 
08:45	47.4	47.4	47.4	53	31.1	1	6	90	0.00	30.122 
08:50	47.6	47.6	47.6	53	31.3	2	6	90	0.00	30.122 
08:55	47.9	47.9	47.9	52	31.1	3	6	90	0.00	30.122 
09:00	48.2	48.2	48.2	52	31.4	2	6	90	0.00	30.114 
09:05	48.5	48.5	48.5	50	30.7	2	7	90	0.00	30.114 
09:10	48.6	48.6	48.6	49	30.3	1	4	90	0.00	30.114 
09:15	48.9	48.9	48.9	47	29.6	2	6	112	0.00	30.115 
09:20	48.9	48.9	48.9	44	28.0	3	9	112	0.00	30.115 
09:25	49.1	49.1	49.1	44	28.1	3	9	90	0.00	30.115 
09:30	49.2	49.2	49.2	43	27.7	3	10	90	0.00	30.111 
09:35	49.4	49.4	49.4	41	26.7	3	8	90	0.00	30.111 
09:40	49.4	49.4	49.4	40	26.1	2	6	112	0.00	30.111 
09:45	49.5	49.5	49.5	41	26.8	3	7	112	0.00	30.104 
09:50	49.6	49.6	49.6	42	27.5	1	4	112	0.00	30.104 
09:55	49.8	49.8	49.8	38	25.2	3	7	90	0.00	30.104 
10:00	49.9	49.9	49.9	37	24.7	3	7	90	0.00	30.100 
10:05	50.1	50.1	50.1	39	26.1	3	12	112	0.00	30.100 
10:10	49.9	48.1	49.9	37	24.7	5	11	90	0.00	30.100 
10:15	49.8	48.6	49.8	36	23.9	4	10	112	0.00	30.101 
10:20	49.9	49.9	49.9	39	25.9	2	6	90	0.00	30.101 
10:25	50.4	50.4	50.4	37	25.1	3	6	90	0.00	30.101 
10:30	50.7	50.7	50.7	35	24.1	3	7	90	0.00	30.092 
10:35	51.0	51.0	51.0	37	25.7	2	6	135	0.00	30.092 
10:40	51.3	51.3	51.3	34	23.9	2	6	90	0.00	30.092 
10:45	51.3	51.3	51.3	34	23.9	3	7	90	0.00	30.092 
10:50	51.4	51.4	51.4	35	24.7	2	5	112	0.00	30.092 
10:55	51.6	51.6	51.6	36	25.5	3	10	112	0.00	30.092 
11:00	51.6	51.6	51.6	34	24.2	5	12	90	0.00	30.085 
11:05	51.7	51.7	51.7	33	23.5	3	11	90	0.00	30.085 
11:10	51.7	51.7	51.7	33	23.5	5	13	112	0.00	30.085 
11:15	51.9	51.9	51.9	34	24.4	5	9	112	0.00	30.086 
11:20	52.3	52.3	52.3	32	23.3	6	13	90	0.00	30.086 
11:25	52.5	52.5	52.5	31	22.8	5	10	112	0.00	30.086 
11:30	52.5	52.5	52.5	31	22.8	3	10	112	0.00	30.080 
11:35	52.5	52.5	52.5	33	24.2	3	9	112	0.00	30.080 
11:40	52.5	52.5	52.5	34	25.0	2	4	90	0.00	30.080 
11:45	52.8	52.8	52.8	32	23.8	4	10	112	0.00	30.075 
11:50	52.8	52.8	52.8	31	23.0	5	11	90	0.00	30.075 
11:55	52.9	52.9	52.9	31	23.1	5	11	90	0.00	30.075 
12:00	53.6	53.6	53.6	31	23.7	3	9	112	0.00	30.063 
12:05	54.5	54.5	54.5	27	21.2	5	12	112	0.00	30.063 
12:10	54.4	54.4	54.4	31	24.4	4	10	90	0.00	30.063 
12:15	54.4	54.4	54.4	28	22.0	6	11	112	0.00	30.063 
12:20	54.5	54.5	54.5	27	21.2	3	11	90	0.00	30.063 
12:25	54.7	54.7	54.7	28	22.2	5	12	90	0.00	30.063 
12:30	55.4	55.4	55.4	28	22.8	3	6	90	0.00	30.051 
12:35	56.6	56.6	56.6	27	23.0	3	9	135	0.00	30.051 
12:40	57.3	57.3	57.3	26	22.7	4	12	90	0.00	30.051 
12:45	57.0	57.0	57.0	26	22.5	6	14	112	0.00	30.039 
12:50	56.5	56.5	56.5	27	22.9	6	14	112	0.00	30.039 
12:55	56.3	56.3	56.3	26	21.9	6	14	112	0.00	30.039 
13:00	56.3	56.3	56.3	28	23.6	5	13	90	0.00	30.028 
13:05	56.7	56.7	56.7	26	22.2	6	15	112	0.00	30.028 
13:10	56.9	56.9	56.9	28	24.1	5	11	112	0.00	30.028 
13:15	57.0	57.0	57.0	25	21.5	5	12	112	0.00	30.021 
13:20	57.3	57.3	57.3	26	22.7	4	14	90	0.00	30.021 
13:25	57.5	57.5	57.5	24	21.0	6	13	112	0.00	30.021 
13:30	57.6	57.6	57.6	27	23.9	4	12	90	0.00	30.013 
13:35	57.5	57.5	57.5	25	22.0	7	18	112	0.00	30.013 
13:40	58.0	58.0	58.0	27	24.2	3	7	90	0.00	30.013 
13:45	58.9	58.9	58.9	28	25.9	4	14	112	0.00	30.006 
13:50	58.9	58.9	58.9	26	24.1	5	17	112	0.00	30.006 
13:55	59.0	59.0	59.0	23	21.3	4	13	90	0.00	30.006 
14:00	59.3	59.3	59.3	25	23.5	3	9	112	0.00	30.001 
14:05	59.6	59.6	59.6	23	21.8	4	10	112	0.00	30.001 
14:10	59.8	59.8	59.8	23	21.9	5	12	90	0.00	30.001 
14:15	59.6	59.6	59.6	22	20.7	4	11	90	0.00	29.989 
14:20	59.5	59.5	59.5	22	20.6	3	9	90	0.00	29.989 
14:25	59.3	59.3	59.3	23	21.5	3	9	112	0.00	29.989 
14:30	59.8	59.8	59.8	22	20.9	4	9	112	0.00	29.986 
14:35	59.6	59.6	59.6	21	19.6	4	10	112	0.00	29.986 
14:40	59.5	59.5	59.5	23	21.7	4	10	90	0.00	29.986 
14:45	59.5	59.5	59.5	21	19.5	4	12	112	0.00	29.985 
14:50	59.3	59.3	59.3	23	21.5	3	7	112	0.00	29.985 
14:55	59.0	59.0	59.0	21	19.1	4	14	112	0.00	29.985 
15:00	58.9	58.9	58.9	21	19.0	4	13	90	0.00	29.986 
15:05	58.9	58.9	58.9	23	21.2	5	12	112	0.00	29.986 
15:10	59.3	59.3	59.3	21	19.4	5	12	90	0.00	29.986 
15:15	59.5	59.5	59.5	22	20.6	5	11	112	0.00	29.972 
15:20	59.6	59.6	59.6	22	20.7	3	9	90	0.00	29.972 
15:25	59.5	59.5	59.5	21	19.5	5	13	112	0.00	29.972 
15:30	59.3	59.3	59.3	20	18.2	5	13	112	0.00	29.962 
15:35	59.2	59.2	59.2	22	20.4	5	14	90	0.00	29.962 
15:40	59.0	59.0	59.0	23	21.3	5	13	90	0.00	29.962 
15:45	59.0	59.0	59.0	21	19.1	5	12	112	0.00	29.955 
15:50	59.2	59.2	59.2	22	20.4	4	11	112	0.00	29.955 
15:55	59.3	59.3	59.3	21	19.4	5	11	90	0.00	29.955 
16:00	59.5	59.5	59.5	21	19.5	5	12	112	0.00	29.941 
16:05	59.5	59.5	59.5	22	20.6	5	10	112	0.00	29.941 
16:10	59.3	59.3	59.3	21	19.4	5	11	112	0.00	29.941 
16:15	58.9	58.9	58.9	22	20.1	5	11	112	0.00	29.943 
16:20	58.7	58.7	58.7	23	21.0	4	12	112	0.00	29.943 
16:25	58.6	58.6	58.6	24	21.9	4	10	90	0.00	29.943 
16:30	58.3	58.3	58.3	24	21.7	5	11	112	0.00	29.931 
16:35	58.3	58.3	58.3	23	20.7	5	9	90	0.00	29.931 
16:40	58.3	58.3	58.3	22	19.6	5	12	112	0.00	29.931 
16:45	58.4	58.4	58.4	22	19.7	5	10	112	0.00	29.924 
16:50	58.6	58.6	58.6	23	20.9	4	9	112	0.00	29.924 
16:55	58.4	58.4	58.4	23	20.8	5	12	90	0.00	29.924 
17:00	58.3	58.3	58.3	23	20.7	5	15	90	0.00	29.915 
17:05	58.3	58.3	58.3	22	19.6	6	12	112	0.00	29.915 
17:10	58.0	58.0	58.0	23	20.4	6	12	90	0.00	29.915 
17:15	58.0	58.0	58.0	24	21.4	5	12	90	0.00	29.908 
17:20	57.8	57.8	57.8	28	24.9	5	12	90	0.00	29.908 
17:25	57.8	57.8	57.8	27	24.0	5	11	90	0.00	29.908 
17:30	58.1	58.1	58.1	26	23.4	5	15	90	0.00	29.901 
17:35	58.3	58.3	58.3	26	23.6	6	11	90	0.00	29.901 
17:40	58.4	58.4	58.4	26	23.7	5	11	112	0.00	29.901 
17:45	58.4	58.4	58.4	26	23.7	6	14	90	0.00	29.898 
17:50	58.4	58.4	58.4	26	23.7	6	14	90	0.00	29.898 
17:55	58.7	58.7	58.7	25	23.0	5	15	90	0.00	29.898 
18:00	58.6	58.6	58.6	24	21.9	6	13	90	0.00	29.899 
18:05	58.4	58.4	58.4	24	21.8	6	16	112	0.00	29.899 
18:10	58.3	58.3	58.3	25	22.6	7	12	90	0.00	29.899 
18:15	58.1	58.1	58.1	25	22.5	5	15	112	0.00	29.892 
18:20	58.0	58.0	58.0	26	23.3	4	9	112	0.00	29.892 
18:25	57.8	57.8	57.8	25	22.2	6	13	90	0.00	29.892 
18:30	57.8	57.8	57.8	26	23.1	4	8	90	0.00	29.888 
18:35	57.6	57.6	57.6	26	23.0	5	12	112	0.00	29.888 
18:40	57.6	57.6	57.6	27	23.9	4	7	112	0.00	29.888 
18:45	57.5	57.5	57.5	26	22.9	6	17	90	0.00	29.878 
18:50	57.3	57.3	57.3	28	24.5	5	14	90	0.00	29.878 
18:55	57.2	57.2	57.2	27	23.5	6	13	90	0.00	29.878 
19:00	57.2	57.2	57.2	28	24.4	5	11	112	0.00	29.876 
19:05	57.0	57.0	57.0	27	23.4	4	9	112	0.00	29.876 
19:10	57.0	57.0	57.0	28	24.2	6	13	90	0.00	29.876 
19:15	56.9	56.9	56.9	27	23.3	5	12	112	0.00	29.855 
19:20	56.9	56.9	56.9	29	25.0	6	14	90	0.00	29.855 
19:25	56.7	56.7	56.7	29	24.8	6	12	90	0.00	29.855 
19:30	56.6	56.6	56.6	30	25.5	3	7	90	0.00	29.845 
19:35	56.3	56.3	56.3	31	26.1	5	10	90	0.00	29.845 
19:40	56.2	56.2	56.2	32	26.7	3	7	90	0.00	29.845 
19:45	55.9	55.9	55.9	32	26.5	5	10	90	0.00	29.844 
19:50	55.7	55.7	55.7	32	26.3	4	7	90	0.00	29.844 
19:55	55.7	55.7	55.7	32	26.3	4	10	90	0.00	29.844 
20:00	55.7	55.7	55.7	31	25.5	4	8	112	0.00	29.843 
20:05	55.7	55.7	55.7	30	24.8	4	10	90	0.00	29.843 
20:10	55.7	55.7	55.7	28	23.1	4	9	90	0.00	29.843 
20:15	55.6	55.6	55.6	28	23.0	3	6	90	0.00	29.845 
20:20	55.6	55.6	55.6	29	23.9	2	6	90	0.00	29.845 
20:25	55.3	55.3	55.3	29	23.6	2	5	90	0.00	29.845 
20:30	55.3	55.3	55.3	30	24.4	3	6	90	0.00	29.848 
20:35	55.1	55.1	55.1	30	24.2	3	7	90	0.00	29.848 
20:40	54.8	54.8	54.8	31	24.8	3	7	90	0.00	29.848 
20:45	54.7	54.7	54.7	31	24.7	2	5	90	0.00	29.845 
20:50	54.4	54.4	54.4	31	24.4	2	6	112	0.00	29.845 
20:55	54.2	54.2	54.2	31	24.2	3	7	112	0.00	29.845 
21:00	54.1	54.1	54.1	32	24.9	2	4	68	0.00	29.845 
21:05	53.9	53.9	53.9	32	24.7	2	4	90	0.00	29.845 
21:10	53.8	53.8	53.8	35	26.8	3	11	90	0.00	29.845 
21:15	52.9	52.9	52.9	41	29.8	5	11	90	0.00	29.845 
21:20	52.0	52.0	52.0	43	30.2	4	9	90	0.00	29.845 
21:25	51.3	51.3	51.3	45	30.7	5	11	90	0.00	29.845 
21:30	50.8	50.8	50.8	45	30.2	5	11	112	0.00	29.833 
21:35	50.5	50.5	50.5	45	30.0	5	11	90	0.00	29.833 
21:40	50.2	50.2	50.2	45	29.7	4	11	90	0.00	29.833 
21:45	49.9	49.9	49.9	46	30.0	3	10	90	0.00	29.835 
21:50	49.8	48.6	49.8	46	29.9	4	9	90	0.00	29.835 
21:55	49.5	48.3	49.5	46	29.6	4	9	90	0.00	29.835 
22:00	49.4	48.2	49.4	46	29.5	4	9	90	0.00	29.830 
22:05	49.2	47.3	49.2	46	29.3	5	10	90	0.00	29.830 
22:10	49.1	46.6	49.1	46	29.2	6	12	90	0.00	29.830 
22:15	48.9	46.9	48.9	47	29.6	5	10	112	0.00	29.818 
22:20	48.8	47.5	48.8	47	29.5	4	10	112	0.00	29.818 
22:25	48.6	47.3	48.6	47	29.3	4	9	90	0.00	29.818 
22:30	48.5	47.1	48.5	48	29.7	4	10	90	0.00	29.817 
22:35	48.3	46.2	48.3	48	29.5	5	12	90	0.00	29.817 
22:40	48.2	46.1	48.2	48	29.4	5	8	90	0.00	29.817 
22:45	48.2	48.2	48.2	49	29.9	3	8	90	0.00	29.815 
22:50	48.0	48.0	48.0	49	29.8	3	7	90	0.00	29.815 
22:55	47.7	47.7	47.7	50	30.0	2	5	90	0.00	29.815 
23:00	47.6	47.6	47.6	50	29.9	3	5	90	0.00	29.813 
23:05	47.3	45.8	47.3	50	29.6	4	7	90	0.00	29.813 
23:10	47.1	45.5	47.1	50	29.4	4	8	68	0.00	29.813 
23:15	47.0	45.4	47.0	51	29.8	4	11	90	0.00	29.798 
23:20	47.0	45.4	47.0	51	29.8	4	10	90	0.00	29.798 
23:25	46.8	46.8	46.8	51	29.6	3	7	90	0.00	29.798 
23:30	46.7	46.7	46.7	52	30.0	2	5	90	0.00	29.792 
23:35	46.4	46.4	46.4	53	30.2	3	7	90	0.00	29.792 
23:40	46.2	46.2	46.2	53	30.0	3	5	90	0.00	29.792 
23:45	46.1	44.4	46.1	53	29.9	4	9	90	0.00	29.779 
23:50	45.8	45.8	45.8	54	30.1	3	10	112	0.00	29.779 
23:55	45.7	45.7	45.7	54	30.0	3	7	90	0.00	29.779 

CoCoRaHS
IN-AL-39
A2 Web Hosting
Creative Commons License
GoDaddy
search engine by freefind advanced

loaded 2018-11-12 19:52:00 • last modified 2010-11-18 10:43:29
Privacy PolicyDisclaimer
• wx.awcolley.com is powered by PmWiki v.2002016 •
• all content (unless otherwise noted) © 2018 A W Colley